LETV weather

Tirviá Heliport
Tirvia, Catalonia, Spain

Public forecast

Using degrees Celsius for public forecast. Weather courtesy of forecast.io.

METAR (pilot weather report)

Closest report is Pirineus - la Seu d'Urgel Airport, 13.1 nm (24.3 km) SE. Retrieved 2019/09/16 15:30 UTC (0 seconds ago):

LESU 161530Z 21009KT 9999 FEW070TCU SCT075 26/12 Q1020

TAF (pilot weather forecast)

Closest forecast is Pirineus - la Seu d'Urgel Airport, 13.1 nm (24.3 km) SE. Retrieved 2019/09/16 15:00 UTC (15 minutes ago):

TAF LESU 161400Z 1615/1715 VRB04KT 9999 SCT060 TX28/1712Z TN12/1706Z TEMPO 1615/1618 20010KT PROB30 TEMPO 1615/1620 SHRA FEW060TCU TEMPO 1712/1715 20010KT